createdAt,value
2023-05-23T00:00:10.470Z,12.87
2023-05-23T00:01:10.415Z,12.67
2023-05-23T00:02:10.468Z,12.67
2023-05-23T00:03:10.566Z,12.57
2023-05-23T00:04:10.469Z,13.48
2023-05-23T00:05:10.373Z,14.39
2023-05-23T00:06:10.351Z,15.52
2023-05-23T00:07:10.352Z,15.21
2023-05-23T00:08:10.351Z,15.92
2023-05-23T00:09:10.343Z,16.22
2023-05-23T00:10:10.317Z,17.95
2023-05-23T00:11:09.784Z,17.85
2023-05-23T00:12:10.344Z,19.07
2023-05-23T00:13:10.304Z,19.78
2023-05-23T00:14:10.311Z,19.89
2023-05-23T00:15:10.310Z,19.48
2023-05-23T00:16:10.219Z,19.58
2023-05-23T00:17:10.237Z,19.89
2023-05-23T00:18:10.209Z,20.39
2023-05-23T00:19:10.221Z,20.39
2023-05-23T00:20:10.182Z,20.39
2023-05-23T00:21:10.152Z,20.90
2023-05-23T00:22:10.128Z,20.59
2023-05-23T00:23:10.124Z,20.70
2023-05-23T00:24:10.123Z,20.50
2023-05-23T00:25:10.096Z,20.91
2023-05-23T00:26:10.094Z,21.11
2023-05-23T00:27:10.082Z,22.53
2023-05-23T00:28:10.065Z,21.52
2023-05-23T00:29:10.039Z,19.08
2023-05-23T00:30:10.032Z,18.48
2023-05-23T00:31:10.057Z,17.25
2023-05-23T00:32:10.020Z,16.03
2023-05-23T00:33:09.980Z,15.12
2023-05-23T00:34:09.972Z,14.41
2023-05-23T00:35:09.955Z,13.60
2023-05-23T00:36:09.933Z,12.99
2023-05-23T00:37:09.930Z,14.51
2023-05-23T00:38:09.922Z,15.73
2023-05-23T00:39:09.899Z,14.62
2023-05-23T00:40:09.895Z,14.31
2023-05-23T00:41:09.869Z,13.91
2023-05-23T00:42:09.870Z,13.30
2023-05-23T00:43:09.854Z,12.59
2023-05-23T00:44:09.830Z,12.39
2023-05-23T00:45:09.353Z,12.49
2023-05-23T00:46:09.858Z,12.29
2023-05-23T00:47:09.828Z,12.18
2023-05-23T00:48:09.786Z,9.95
2023-05-23T00:49:09.766Z,10.36
2023-05-23T00:50:09.763Z,11.07
2023-05-23T00:51:09.770Z,11.58
2023-05-23T00:52:09.721Z,12.90
2023-05-23T00:53:09.725Z,13.00
2023-05-23T00:54:09.697Z,14.42
2023-05-23T00:55:09.679Z,13.91
2023-05-23T00:56:09.683Z,14.01
2023-05-23T00:57:09.652Z,15.13
2023-05-23T00:58:09.635Z,16.05
2023-05-23T00:59:09.627Z,16.14
2023-05-23T01:00:09.605Z,17.26
2023-05-23T01:01:09.619Z,17.67
2023-05-23T01:02:09.625Z,18.59
2023-05-23T01:03:09.676Z,19.81
2023-05-23T01:04:09.683Z,20.52
2023-05-23T01:05:09.556Z,20.93
2023-05-23T01:06:09.528Z,21.23
2023-05-23T01:07:09.512Z,21.34
2023-05-23T01:08:09.502Z,21.95
2023-05-23T01:09:09.498Z,20.22
2023-05-23T01:10:09.478Z,17.98
2023-05-23T01:11:09.453Z,16.66
2023-05-23T01:12:09.446Z,16.97
2023-05-23T01:13:09.425Z,17.47
2023-05-23T01:14:09.430Z,18.19
2023-05-23T01:15:09.417Z,18.90
2023-05-23T01:16:09.409Z,19.92
2023-05-23T01:17:08.811Z,20.52
2023-05-23T01:18:09.386Z,21.45
2023-05-23T01:19:09.398Z,21.04
2023-05-23T01:20:09.337Z,20.64
2023-05-23T01:21:09.320Z,20.53
2023-05-23T01:22:09.302Z,20.64
2023-05-23T01:23:09.337Z,21.55
2023-05-23T01:24:09.283Z,21.34
2023-05-23T01:25:09.260Z,21.65
2023-05-23T01:26:09.261Z,21.65
2023-05-23T01:27:09.243Z,21.95
2023-05-23T01:28:09.235Z,22.36
2023-05-23T01:29:09.219Z,21.04
2023-05-23T01:30:09.183Z,21.04
2023-05-23T01:31:09.187Z,20.73
2023-05-23T01:32:09.299Z,21.25
2023-05-23T01:33:09.288Z,21.34
2023-05-23T01:34:09.128Z,21.45
2023-05-23T01:35:09.110Z,21.34
2023-05-23T01:36:09.116Z,21.75
2023-05-23T01:37:09.098Z,21.25
2023-05-23T01:38:09.100Z,22.67
2023-05-23T01:39:09.061Z,19.31
2023-05-23T01:40:09.044Z,17.28
2023-05-23T01:41:09.040Z,15.55
2023-05-23T01:42:09.044Z,15.25
2023-05-23T01:43:09.020Z,16.47
2023-05-23T01:44:09.019Z,16.47
2023-05-23T01:45:08.975Z,16.56
2023-05-23T01:46:09.014Z,16.87
2023-05-23T01:47:08.970Z,16.36
2023-05-23T01:48:08.980Z,16.47
2023-05-23T01:49:08.927Z,17.58
2023-05-23T01:50:08.907Z,18.09
2023-05-23T01:51:08.896Z,21.04
2023-05-23T01:52:08.906Z,20.23
2023-05-23T01:53:08.881Z,19.82
2023-05-23T01:54:08.864Z,19.01
2023-05-23T01:55:08.877Z,20.43
2023-05-23T01:56:08.820Z,20.12
2023-05-23T01:57:08.816Z,20.43
2023-05-23T01:58:08.809Z,20.64
2023-05-23T01:59:08.790Z,20.54
2023-05-23T02:00:08.801Z,20.64
2023-05-23T02:01:08.850Z,19.02
2023-05-23T02:02:08.788Z,18.00
2023-05-23T02:03:08.804Z,17.19
2023-05-23T02:04:08.725Z,17.19
2023-05-23T02:05:08.732Z,19.22
2023-05-23T02:06:08.709Z,18.61
2023-05-23T02:07:08.729Z,20.04
2023-05-23T02:08:08.698Z,21.26
2023-05-23T02:09:08.649Z,20.96
2023-05-23T02:10:08.647Z,21.16
2023-05-23T02:11:08.641Z,21.98
2023-05-23T02:12:08.617Z,23.10
2023-05-23T02:13:08.603Z,22.79
2023-05-23T02:14:08.584Z,23.81
2023-05-23T02:15:08.611Z,24.62
2023-05-23T02:16:08.582Z,24.42
2023-05-23T02:17:08.601Z,24.02
2023-05-23T02:18:08.631Z,24.02
2023-05-23T02:19:08.698Z,23.31
2023-05-23T02:20:08.539Z,22.60
2023-05-23T02:21:08.506Z,22.70
2023-05-23T02:22:08.489Z,21.89
2023-05-23T02:23:08.490Z,21.48
2023-05-23T02:24:08.468Z,21.16
2023-05-23T02:25:08.461Z,20.96
2023-05-23T02:26:08.433Z,19.84
2023-05-23T02:27:08.428Z,17.19
2023-05-23T02:28:08.410Z,16.48
2023-05-23T02:29:08.412Z,17.19
2023-05-23T02:30:07.913Z,17.29
2023-05-23T02:31:08.437Z,17.69
2023-05-23T02:32:08.390Z,17.49
2023-05-23T02:33:08.405Z,18.10
2023-05-23T02:34:08.337Z,18.61
2023-05-23T02:35:08.338Z,18.81
2023-05-23T02:36:08.281Z,19.12
2023-05-23T02:37:08.281Z,19.63
2023-05-23T02:38:08.280Z,18.51
2023-05-23T02:39:08.284Z,18.81
2023-05-23T02:40:08.240Z,19.32
2023-05-23T02:41:08.226Z,20.14
2023-05-23T02:42:08.226Z,19.63
2023-05-23T02:43:08.193Z,19.53
2023-05-23T02:44:08.203Z,18.51
2023-05-23T02:45:08.159Z,18.20
2023-05-23T02:46:08.177Z,18.61
2023-05-23T02:47:08.149Z,18.10
2023-05-23T02:48:08.318Z,18.52
2023-05-23T02:49:08.121Z,18.62
2023-05-23T02:50:08.105Z,19.32
2023-05-23T02:51:08.089Z,20.96
2023-05-23T02:52:08.070Z,20.86
2023-05-23T02:53:08.096Z,21.67
2023-05-23T02:54:08.048Z,24.42
2023-05-23T02:55:08.050Z,23.91
2023-05-23T02:56:08.021Z,24.52
2023-05-23T02:57:08.008Z,24.11
2023-05-23T02:58:07.995Z,24.01
2023-05-23T02:59:07.977Z,22.28
2023-05-23T03:00:07.958Z,20.56
2023-05-23T03:01:08.291Z,20.05
2023-05-23T03:02:08.094Z,20.05
2023-05-23T03:03:08.024Z,20.46
2023-05-23T03:04:07.963Z,19.85
2023-05-23T03:05:07.972Z,20.56
2023-05-23T03:06:07.950Z,21.58
2023-05-23T03:07:11.643Z,22.19
2023-05-23T03:08:08.909Z,21.98
2023-05-23T03:09:06.081Z,22.39
2023-05-23T03:10:06.085Z,23.00
2023-05-23T03:11:06.021Z,22.50
2023-05-23T03:12:06.024Z,22.39
2023-05-23T03:13:06.109Z,22.39
2023-05-23T03:14:06.111Z,22.29
2023-05-23T03:15:07.434Z,24.22
2023-05-23T03:16:06.037Z,23.73
2023-05-23T03:17:05.933Z,24.54
2023-05-23T03:18:05.997Z,26.99
2023-05-23T03:19:05.997Z,24.44
2023-05-23T03:20:07.896Z,24.65
2023-05-23T03:21:05.895Z,25.56
2023-05-23T03:22:07.831Z,25.67
2023-05-23T03:23:07.823Z,23.43
2023-05-23T03:24:07.791Z,22.10
2023-05-23T03:25:05.924Z,21.69
2023-05-23T03:26:05.819Z,22.00
2023-05-23T03:27:05.987Z,23.63
2023-05-23T03:28:07.242Z,23.52
2023-05-23T03:29:06.004Z,24.13
2023-05-23T03:30:07.793Z,24.54
2023-05-23T03:31:07.217Z,25.56
2023-05-23T03:32:07.779Z,25.46
2023-05-23T03:33:05.799Z,25.36
2023-05-23T03:34:07.164Z,25.87
2023-05-23T03:35:07.159Z,24.44
2023-05-23T03:36:07.121Z,22.61
2023-05-23T03:37:07.138Z,22.71
2023-05-23T03:38:07.125Z,23.52
2023-05-23T03:39:05.862Z,25.15
2023-05-23T03:40:07.082Z,24.95
2023-05-23T03:41:05.622Z,24.54
2023-05-23T03:42:07.049Z,24.25
2023-05-23T03:43:07.072Z,22.00
2023-05-23T03:44:05.625Z,21.80
2023-05-23T03:45:07.013Z,21.89
2023-05-23T03:46:05.618Z,21.19
2023-05-23T03:47:05.544Z,21.39
2023-05-23T03:48:07.531Z,21.19
2023-05-23T03:49:05.635Z,21.89
2023-05-23T03:50:05.620Z,22.41
2023-05-23T03:51:05.645Z,23.43
2023-05-23T03:52:05.553Z,23.83
2023-05-23T03:53:06.915Z,25.15
2023-05-23T03:54:05.568Z,27.92
2023-05-23T03:55:05.605Z,26.49
2023-05-23T03:56:07.365Z,28.33
2023-05-23T03:57:05.580Z,28.12
2023-05-23T03:58:06.837Z,27.72
2023-05-23T03:59:06.821Z,28.02
2023-05-23T04:00:05.372Z,28.74
2023-05-23T04:01:06.778Z,28.63
2023-05-23T04:02:05.354Z,28.94
2023-05-23T04:03:05.564Z,28.42
2023-05-23T04:04:07.303Z,28.94
2023-05-23T04:05:05.403Z,27.00
2023-05-23T04:06:07.214Z,25.98
2023-05-23T04:07:05.252Z,24.76
2023-05-23T04:08:05.388Z,23.64
2023-05-23T04:09:06.695Z,23.84
2023-05-23T04:10:05.273Z,23.74
2023-05-23T04:11:05.346Z,24.05
2023-05-23T04:12:06.653Z,24.34
2023-05-23T04:13:05.402Z,25.05
2023-05-23T04:14:06.604Z,26.38
2023-05-23T04:15:06.612Z,25.15
2023-05-23T04:16:05.426Z,24.13
2023-05-23T04:17:06.598Z,24.44
2023-05-23T04:18:05.249Z,24.04
2023-05-23T04:19:06.650Z,24.44
2023-05-23T04:20:06.590Z,25.46
2023-05-23T04:21:05.158Z,25.26
2023-05-23T04:22:06.885Z,24.34
2023-05-23T04:23:06.862Z,24.44
2023-05-23T04:24:06.860Z,24.24
2023-05-23T04:25:06.894Z,24.94
2023-05-23T04:26:06.795Z,24.63
2023-05-23T04:27:06.801Z,23.61
2023-05-23T04:28:06.780Z,23.41
2023-05-23T04:29:06.848Z,23.92
2023-05-23T04:30:06.758Z,24.43
2023-05-23T04:31:06.814Z,24.94
2023-05-23T04:32:06.733Z,26.46
2023-05-23T04:33:06.742Z,25.45
2023-05-23T04:34:06.705Z,25.35
2023-05-23T04:35:06.680Z,25.95
2023-05-23T04:36:06.685Z,26.15
2023-05-23T04:37:06.667Z,26.56
2023-05-23T04:38:06.657Z,27.78
2023-05-23T04:39:06.634Z,26.76
2023-05-23T04:40:06.640Z,26.66
2023-05-23T04:41:06.664Z,26.76
2023-05-23T04:42:06.596Z,27.58
2023-05-23T04:43:06.584Z,27.06
2023-05-23T04:44:06.606Z,27.58
2023-05-23T04:45:06.541Z,25.13
2023-05-23T04:46:06.542Z,23.30
2023-05-23T04:47:06.591Z,23.71
2023-05-23T04:48:06.595Z,23.71
2023-05-23T04:49:06.033Z,21.98
2023-05-23T04:50:06.518Z,22.58
2023-05-23T04:51:06.480Z,23.49
2023-05-23T04:52:06.456Z,24.51
2023-05-23T04:53:06.429Z,25.73
2023-05-23T04:54:06.453Z,26.24
2023-05-23T04:55:05.929Z,26.73
2023-05-23T04:56:06.399Z,27.95
2023-05-23T04:57:06.399Z,29.17
2023-05-23T04:58:06.368Z,28.14
2023-05-23T04:59:06.362Z,27.03
2023-05-23T05:00:06.357Z,28.04
2023-05-23T05:01:06.382Z,28.44
2023-05-23T05:02:06.300Z,30.87
2023-05-23T05:03:06.348Z,31.68
2023-05-23T05:04:06.301Z,30.57
2023-05-23T05:05:06.276Z,30.05
2023-05-23T05:06:06.239Z,31.16
2023-05-23T05:07:06.248Z,32.98
2023-05-23T05:08:06.228Z,34.19
2023-05-23T05:09:06.210Z,36.02
2023-05-23T05:10:06.221Z,38.03
2023-05-23T05:11:06.182Z,41.97
2023-05-23T05:12:06.179Z,44.50
2023-05-23T05:13:06.162Z,43.59
2023-05-23T05:14:06.157Z,43.89
2023-05-23T05:15:06.134Z,44.10
2023-05-23T05:16:06.117Z,43.08
2023-05-23T05:17:06.148Z,42.17
2023-05-23T05:18:06.108Z,39.84
2023-05-23T05:19:06.126Z,39.84
2023-05-23T05:20:06.073Z,39.13
2023-05-23T05:21:06.047Z,36.61
2023-05-23T05:22:06.029Z,33.77
2023-05-23T05:23:06.003Z,31.95
2023-05-23T05:24:06.008Z,30.02
2023-05-23T05:25:05.993Z,29.80
2023-05-23T05:26:05.964Z,28.19
2023-05-23T05:27:05.952Z,26.97
2023-05-23T05:28:05.993Z,25.95
2023-05-23T05:29:06.008Z,25.95
2023-05-23T05:30:05.927Z,25.95
2023-05-23T05:31:05.944Z,24.11
2023-05-23T05:32:05.879Z,23.20
2023-05-23T05:33:05.899Z,22.69
2023-05-23T05:34:05.401Z,22.09
2023-05-23T05:35:05.871Z,22.29
2023-05-23T05:36:05.996Z,21.97
2023-05-23T05:37:05.836Z,20.86
2023-05-23T05:38:05.832Z,20.56
2023-05-23T05:39:05.817Z,20.95
2023-05-23T05:40:05.805Z,22.06
2023-05-23T05:41:08.033Z,20.65
2023-05-23T05:42:05.762Z,21.97
2023-05-23T05:43:05.750Z,27.23
2023-05-23T05:44:05.748Z,29.67
2023-05-23T05:45:05.813Z,27.55
2023-05-23T05:46:05.767Z,29.17
2023-05-23T05:47:05.702Z,28.45
2023-05-23T05:48:05.777Z,24.71
2023-05-23T05:49:05.694Z,30.68
2023-05-23T05:50:05.647Z,27.84
2023-05-23T05:51:05.645Z,26.72
2023-05-23T05:52:05.640Z,29.15
2023-05-23T05:53:05.627Z,28.34
2023-05-23T05:54:05.600Z,29.05
2023-05-23T05:55:05.567Z,29.24
2023-05-23T05:56:05.582Z,28.43
2023-05-23T05:57:05.578Z,29.95
2023-05-23T05:58:05.539Z,28.53
2023-05-23T05:59:05.533Z,31.26
2023-05-23T06:00:05.518Z,31.77
2023-05-23T06:01:05.520Z,34.00
2023-05-23T06:02:05.513Z,30.86
2023-05-23T06:03:05.581Z,33.27
2023-05-23T06:04:05.594Z,32.16
2023-05-23T06:05:05.477Z,31.45
2023-05-23T06:06:05.446Z,31.84
2023-05-23T06:07:05.417Z,35.58
2023-05-23T06:08:05.416Z,39.52
2023-05-23T06:09:05.397Z,37.90
2023-05-23T06:10:05.396Z,40.53
2023-05-23T06:11:05.376Z,38.90
2023-05-23T06:12:05.347Z,39.00
2023-05-23T06:13:05.335Z,39.28
2023-05-23T06:14:05.314Z,38.76
2023-05-23T06:15:05.328Z,43.08
2023-05-23T06:16:05.349Z,41.87
2023-05-23T06:17:04.788Z,46.81
2023-05-23T06:18:05.358Z,47.19
2023-05-23T06:19:05.283Z,49.52
2023-05-23T06:20:05.256Z,55.66
2023-05-23T06:21:05.228Z,52.22
2023-05-23T06:22:05.211Z,62.21
2023-05-23T06:23:05.203Z,68.85
2023-05-23T06:24:05.191Z,69.92
2023-05-23T06:25:05.191Z,71.23
2023-05-23T06:26:05.158Z,72.34
2023-05-23T06:27:05.142Z,75.19
2023-05-23T06:28:05.159Z,72.88
2023-05-23T06:29:05.113Z,72.88
2023-05-23T06:30:05.121Z,72.88
2023-05-23T06:31:05.110Z,71.91
2023-05-23T06:32:05.142Z,69.69
2023-05-23T06:33:05.166Z,69.69
2023-05-23T06:34:05.050Z,78.39
2023-05-23T06:35:04.551Z,75.67
2023-05-23T06:36:05.023Z,74.76
2023-05-23T06:37:05.012Z,74.69
2023-05-23T06:38:05.002Z,69.65
2023-05-23T06:39:04.991Z,71.17
2023-05-23T06:40:04.979Z,73.18
2023-05-23T06:41:04.956Z,73.99
2023-05-23T06:42:04.962Z,69.15
2023-05-23T06:43:04.919Z,69.32
2023-05-23T06:44:04.910Z,68.71
2023-05-23T06:45:04.894Z,68.51
2023-05-23T06:46:04.975Z,69.12
2023-05-23T06:47:04.863Z,72.24
2023-05-23T06:48:04.947Z,67.60
2023-05-23T06:49:14.271Z,73.65
2023-05-23T06:50:05.864Z,72.88
2023-05-23T06:51:04.817Z,69.21
2023-05-23T06:52:04.798Z,70.83
2023-05-23T06:53:04.790Z,69.15
2023-05-23T06:54:04.785Z,66.02
2023-05-23T06:55:04.769Z,67.94
2023-05-23T06:56:04.753Z,66.13
2023-05-23T06:57:04.731Z,66.22
2023-05-23T06:58:04.557Z,64.38
2023-05-23T06:59:04.704Z,62.16
2023-05-23T07:00:04.682Z,64.07
2023-05-23T07:01:04.705Z,70.76
2023-05-23T07:02:04.664Z,74.99
2023-05-23T07:03:04.762Z,71.67
2023-05-23T07:04:04.632Z,69.55
2023-05-23T07:05:04.658Z,70.49
2023-05-23T07:06:04.604Z,67.33
2023-05-23T07:07:04.617Z,69.05
2023-05-23T07:08:04.590Z,68.57
2023-05-23T07:09:04.581Z,67.67
2023-05-23T07:10:04.541Z,70.93
2023-05-23T07:11:04.546Z,68.51
2023-05-23T07:12:04.541Z,69.52
2023-05-23T07:13:04.502Z,70.62
2023-05-23T07:14:04.520Z,70.32
2023-05-23T07:15:04.477Z,81.62
2023-05-23T07:16:04.470Z,70.83
2023-05-23T07:17:04.508Z,75.77
2023-05-23T07:18:04.553Z,72.27
2023-05-23T07:19:04.446Z,77.32
2023-05-23T07:20:04.409Z,76.11
2023-05-23T07:21:04.410Z,75.77
2023-05-23T07:22:04.423Z,77.39
2023-05-23T07:23:04.367Z,76.48
2023-05-23T07:24:04.349Z,74.46
2023-05-23T07:25:04.330Z,76.44
2023-05-23T07:26:04.333Z,77.95
2023-05-23T07:27:04.314Z,79.16
2023-05-23T07:28:04.300Z,76.95
2023-05-23T07:29:04.284Z,76.75
2023-05-23T07:30:04.265Z,77.75
2023-05-23T07:31:04.347Z,76.71
2023-05-23T07:32:04.256Z,76.00
2023-05-23T07:33:04.281Z,82.65
2023-05-23T07:34:04.225Z,87.23
2023-05-23T07:35:04.205Z,87.58
2023-05-23T07:36:04.210Z,81.79
2023-05-23T07:37:04.182Z,85.66
2023-05-23T07:38:04.300Z,82.64
2023-05-23T07:39:04.149Z,83.28
2023-05-23T07:40:04.143Z,81.36
2023-05-23T07:41:11.661Z,84.29
2023-05-23T07:42:05.096Z,86.00
2023-05-23T07:43:04.087Z,95.14
2023-05-23T07:44:04.113Z,85.54
2023-05-23T07:45:04.092Z,87.46
2023-05-23T07:46:04.076Z,86.30
2023-05-23T07:47:04.090Z,84.69
2023-05-23T07:48:04.049Z,84.99
2023-05-23T07:49:03.990Z,88.02
2023-05-23T07:50:04.003Z,84.35
2023-05-23T07:51:04.035Z,86.27
2023-05-23T07:52:03.959Z,87.68
2023-05-23T07:53:03.973Z,89.94
2023-05-23T07:54:03.934Z,89.23
2023-05-23T07:55:03.939Z,89.74
2023-05-23T07:56:03.913Z,88.12
2023-05-23T07:57:03.897Z,88.43
2023-05-23T07:58:03.868Z,87.12
2023-05-23T07:59:03.873Z,86.51
2023-05-23T08:00:03.854Z,92.36
2023-05-23T08:01:03.837Z,89.54
2023-05-23T08:02:03.836Z,92.06
2023-05-23T08:03:03.872Z,91.46
2023-05-23T08:04:03.944Z,93.37
2023-05-23T08:05:03.789Z,95.09
2023-05-23T08:06:03.775Z,90.75
2023-05-23T08:07:05.830Z,92.22
2023-05-23T08:08:03.744Z,97.67
2023-05-23T08:09:03.753Z,94.74
2023-05-23T08:10:03.259Z,93.84
2023-05-23T08:11:03.798Z,92.68
2023-05-23T08:12:03.685Z,92.47
2023-05-23T08:13:06.049Z,99.04
2023-05-23T08:14:03.697Z,95.61
2023-05-23T08:15:03.677Z,99.99
2023-05-23T08:16:04.370Z,98.93
2023-05-23T08:17:03.721Z,94.90
2023-05-23T08:18:03.758Z,95.66
2023-05-23T08:19:03.231Z,98.58
2023-05-23T08:20:03.580Z,97.17
2023-05-23T08:21:03.170Z,99.99
2023-05-23T08:22:01.666Z,99.99
2023-05-23T08:23:03.555Z,97.58
2023-05-23T08:24:03.554Z,98.64
2023-05-23T08:25:03.518Z,95.31
2023-05-23T08:26:03.494Z,99.65
2023-05-23T08:27:03.497Z,99.50
2023-05-23T08:28:03.536Z,99.95
2023-05-23T08:29:03.456Z,99.60
2023-05-23T08:30:03.462Z,99.99
2023-05-23T08:31:03.434Z,99.99
2023-05-23T08:32:03.463Z,99.99
2023-05-23T08:33:03.540Z,99.99
2023-05-23T08:34:03.420Z,99.99
2023-05-23T08:35:03.402Z,99.99
2023-05-23T08:36:03.372Z,99.99
2023-05-23T08:37:03.365Z,99.99
2023-05-23T08:38:03.334Z,99.99
2023-05-23T08:39:03.322Z,99.99
2023-05-23T08:40:03.319Z,99.99
2023-05-23T08:41:03.302Z,99.99
2023-05-23T08:42:03.326Z,99.99
2023-05-23T08:43:03.320Z,99.99
2023-05-23T08:44:03.239Z,99.99
2023-05-23T08:45:03.242Z,99.99
2023-05-23T08:46:03.260Z,99.99
2023-05-23T08:47:03.208Z,99.99
2023-05-23T08:48:03.208Z,99.99
2023-05-23T08:49:02.734Z,99.99
2023-05-23T08:50:03.161Z,99.99
2023-05-23T08:51:03.172Z,99.99
2023-05-23T08:52:03.128Z,99.99
2023-05-23T08:53:03.173Z,99.99
2023-05-23T08:54:03.115Z,99.99
2023-05-23T08:55:03.089Z,99.99
2023-05-23T08:56:03.107Z,99.99
2023-05-23T08:57:03.066Z,99.99
2023-05-23T08:58:03.045Z,99.99
2023-05-23T08:59:03.067Z,99.99
2023-05-23T09:00:04.241Z,99.99
2023-05-23T09:01:03.024Z,99.99
2023-05-23T09:02:03.046Z,99.99
2023-05-23T09:03:03.044Z,99.99
2023-05-23T09:04:03.000Z,99.99
2023-05-23T09:05:03.011Z,99.99
2023-05-23T09:06:02.979Z,99.99
2023-05-23T09:07:02.953Z,99.99
2023-05-23T09:08:01.044Z,99.99
2023-05-23T09:09:02.910Z,99.99
2023-05-23T09:10:02.911Z,99.99
2023-05-23T09:11:02.921Z,99.99
2023-05-23T09:12:02.872Z,99.99
2023-05-23T09:13:02.862Z,95.56
2023-05-23T09:14:02.849Z,79.29
2023-05-23T09:15:01.885Z,72.85
2023-05-23T09:16:02.864Z,66.34
2023-05-23T09:17:04.561Z,64.72
2023-05-23T09:18:02.844Z,61.63
2023-05-23T09:19:02.782Z,64.31
2023-05-23T09:20:02.778Z,69.20
2023-05-23T09:21:02.739Z,67.83
2023-05-23T09:22:02.806Z,71.83
2023-05-23T09:23:03.797Z,70.39
2023-05-23T09:24:02.714Z,61.11
2023-05-23T09:25:02.722Z,64.34
2023-05-23T09:26:02.688Z,66.13
2023-05-23T09:27:02.661Z,65.40
2023-05-23T09:28:02.670Z,64.00
2023-05-23T09:29:02.645Z,68.59
2023-05-23T09:30:02.613Z,67.80
2023-05-23T09:31:02.605Z,66.93
2023-05-23T09:32:02.636Z,70.12
2023-05-23T09:33:05.528Z,71.92
2023-05-23T09:34:02.708Z,79.61
2023-05-23T09:35:02.643Z,77.06
2023-05-23T09:36:02.554Z,72.39
2023-05-23T09:37:02.531Z,70.12
2023-05-23T09:38:02.537Z,72.92
2023-05-23T09:39:03.282Z,68.79
2023-05-23T09:40:02.534Z,73.60
2023-05-23T09:41:02.483Z,75.74
2023-05-23T09:42:02.495Z,74.37
2023-05-23T09:43:02.467Z,72.56
2023-05-23T09:44:02.448Z,74.17
2023-05-23T09:45:04.134Z,77.17
2023-05-23T09:46:02.405Z,76.41
2023-05-23T09:47:02.438Z,78.11
2023-05-23T09:48:02.455Z,75.71
2023-05-23T09:49:02.417Z,81.96
2023-05-23T09:50:02.351Z,84.83
2023-05-23T09:51:03.576Z,80.02
2023-05-23T09:52:02.341Z,82.93
2023-05-23T09:53:02.363Z,82.23
2023-05-23T09:54:02.306Z,85.24
2023-05-23T09:55:02.276Z,82.63
2023-05-23T09:56:02.261Z,82.76
2023-05-23T09:57:02.328Z,82.43
2023-05-23T09:58:02.255Z,81.32
2023-05-23T09:59:02.254Z,80.22
2023-05-23T10:00:02.278Z,80.68
2023-05-23T10:01:02.260Z,76.41
2023-05-23T10:02:02.209Z,72.60
2023-05-23T10:03:02.173Z,79.75
2023-05-23T10:04:02.188Z,89.73
2023-05-23T10:05:02.150Z,84.71
2023-05-23T10:06:02.158Z,80.90
2023-05-23T10:07:02.147Z,86.86
2023-05-23T10:08:02.105Z,90.17
2023-05-23T10:09:02.095Z,90.37
2023-05-23T10:10:02.084Z,91.22
2023-05-23T10:11:02.077Z,94.20
2023-05-23T10:12:02.056Z,91.72
2023-05-23T10:13:02.043Z,91.42
2023-05-23T10:14:02.017Z,88.61
2023-05-23T10:15:02.009Z,95.04
2023-05-23T10:16:02.003Z,95.34
2023-05-23T10:17:02.035Z,97.15
2023-05-23T10:18:01.999Z,88.31
2023-05-23T10:19:01.998Z,92.23
2023-05-23T10:20:01.953Z,91.72
2023-05-23T10:21:01.936Z,89.42
2023-05-23T10:22:01.925Z,95.64
2023-05-23T10:23:01.906Z,95.34
2023-05-23T10:24:02.451Z,91.13
2023-05-23T10:25:01.903Z,94.44
2023-05-23T10:26:01.848Z,93.84
2023-05-23T10:27:01.838Z,93.54
2023-05-23T10:28:04.144Z,93.13
2023-05-23T10:29:01.827Z,94.13
2023-05-23T10:30:01.846Z,95.84
2023-05-23T10:31:01.803Z,93.43
2023-05-23T10:32:01.769Z,95.84
2023-05-23T10:33:01.826Z,92.83
2023-05-23T10:34:01.754Z,96.75
2023-05-23T10:35:01.742Z,97.96
2023-05-23T10:36:01.737Z,97.75
2023-05-23T10:37:01.684Z,95.54
2023-05-23T10:38:01.679Z,90.22
2023-05-23T10:39:01.682Z,98.41
2023-05-23T10:40:01.712Z,97.20
2023-05-23T10:41:01.645Z,96.66
2023-05-23T10:42:01.619Z,93.99
2023-05-23T10:43:01.614Z,98.41
2023-05-23T10:44:01.621Z,96.86
2023-05-23T10:45:01.618Z,97.71
2023-05-23T10:46:01.665Z,99.21
2023-05-23T10:47:01.622Z,94.09
2023-05-23T10:48:01.585Z,84.65
2023-05-23T10:49:01.548Z,89.78
2023-05-23T10:50:01.509Z,92.89
2023-05-23T10:51:01.490Z,92.18
2023-05-23T10:52:01.473Z,91.18
2023-05-23T10:53:01.502Z,91.84
2023-05-23T10:54:01.452Z,92.54
2023-05-23T10:55:01.439Z,93.00
2023-05-23T10:56:01.432Z,90.19
2023-05-23T10:57:01.450Z,85.97
2023-05-23T10:58:01.426Z,82.57
2023-05-23T10:59:01.385Z,85.27
2023-05-23T11:00:01.369Z,84.63
2023-05-23T11:01:01.348Z,85.94
2023-05-23T11:03:01.393Z,78.38
2023-05-23T11:04:01.395Z,77.01
2023-05-23T11:05:01.305Z,77.61
2023-05-23T11:06:01.288Z,77.91
2023-05-23T11:07:01.305Z,76.81
2023-05-23T11:08:01.262Z,76.41
2023-05-23T11:09:01.261Z,76.65
2023-05-23T11:10:01.236Z,74.84
2023-05-23T11:11:01.247Z,74.01
2023-05-23T11:12:01.235Z,72.03
2023-05-23T11:13:01.205Z,72.94
2023-05-23T11:14:01.177Z,73.03
2023-05-23T11:15:01.174Z,72.53
2023-05-23T11:16:01.234Z,76.25
2023-05-23T11:17:01.154Z,75.08
2023-05-23T11:18:01.176Z,74.04
2023-05-23T11:19:01.153Z,74.10
2023-05-23T11:20:01.102Z,75.21
2023-05-23T11:21:01.102Z,72.40
2023-05-23T11:22:01.097Z,78.08
2023-05-23T11:23:01.058Z,73.97
2023-05-23T11:24:01.060Z,74.17
2023-05-23T11:25:01.110Z,73.27
2023-05-23T11:26:01.031Z,74.57
2023-05-23T11:27:01.018Z,73.33
2023-05-23T11:28:00.994Z,73.33
2023-05-23T11:29:01.012Z,73.63
2023-05-23T11:30:00.985Z,70.50
2023-05-23T11:31:00.954Z,68.69
2023-05-23T11:32:00.979Z,68.09
2023-05-23T11:33:01.001Z,68.99
2023-05-23T11:34:00.925Z,69.36
2023-05-23T11:35:00.910Z,67.59
2023-05-23T11:36:00.896Z,71.03
2023-05-23T11:37:00.868Z,69.16
2023-05-23T11:38:00.865Z,73.36
2023-05-23T11:39:00.839Z,72.83
2023-05-23T11:40:00.867Z,69.32
2023-05-23T11:41:00.827Z,71.23
2023-05-23T11:42:00.822Z,70.03
2023-05-23T11:43:00.806Z,67.42
2023-05-23T11:44:00.785Z,69.56
2023-05-23T11:45:00.786Z,69.99
2023-05-23T11:46:00.805Z,70.06
2023-05-23T11:47:00.764Z,71.16
2023-05-23T11:48:00.780Z,70.56
2023-05-23T11:49:00.741Z,73.86
2023-05-23T11:50:00.709Z,73.60
2023-05-23T11:51:00.693Z,75.37
2023-05-23T11:52:00.684Z,74.13
2023-05-23T11:53:00.651Z,73.13
2023-05-23T11:54:00.651Z,67.92
2023-05-23T11:56:00.781Z,69.09
2023-05-23T11:57:00.594Z,69.89
2023-05-23T11:58:00.589Z,69.19
2023-05-23T11:59:00.584Z,66.28
2023-05-23T12:00:00.591Z,67.99
2023-05-23T12:01:00.545Z,68.79
2023-05-23T12:02:00.545Z,68.29
2023-05-23T12:03:00.602Z,67.39
2023-05-23T12:04:00.649Z,66.62
2023-05-23T12:05:00.561Z,66.92
2023-05-23T12:06:00.473Z,68.52
2023-05-23T12:07:00.490Z,70.12
2023-05-23T12:08:00.469Z,68.39
2023-05-23T12:09:00.435Z,67.49
2023-05-23T12:10:00.414Z,67.59
2023-05-23T12:11:00.401Z,67.29
2023-05-23T12:12:00.385Z,68.19
2023-05-23T12:13:00.389Z,67.59
2023-05-23T12:14:00.376Z,68.29
2023-05-23T12:15:00.361Z,66.59
2023-05-23T12:16:00.487Z,67.79
2023-05-23T12:17:00.326Z,67.96
2023-05-23T12:18:00.364Z,68.96
2023-05-23T12:19:00.292Z,67.79
2023-05-23T12:20:00.316Z,69.29
2023-05-23T12:21:00.259Z,68.59
2023-05-23T12:22:00.272Z,67.09
2023-05-23T12:23:00.235Z,66.09
2023-05-23T12:24:00.226Z,66.89
2023-05-23T12:25:00.249Z,69.59
2023-05-23T12:26:00.199Z,69.19
2023-05-23T12:27:00.224Z,70.03
2023-05-23T12:28:00.179Z,67.55
2023-05-23T12:29:00.205Z,72.00
2023-05-23T12:30:00.199Z,73.50
2023-05-23T12:31:00.185Z,72.47
2023-05-23T12:32:00.147Z,69.79
2023-05-23T12:33:00.135Z,74.34
2023-05-23T12:34:00.135Z,72.33
2023-05-23T12:35:00.096Z,71.77
2023-05-23T12:36:00.104Z,76.65
2023-05-23T12:37:14.925Z,74.24
2023-05-23T12:38:01.040Z,74.80
2023-05-23T12:39:00.053Z,73.27
2023-05-23T12:40:00.006Z,73.43
2023-05-23T12:41:00.034Z,68.22
2023-05-23T12:41:59.988Z,70.32
2023-05-23T12:42:59.994Z,68.49
2023-05-23T12:43:59.968Z,69.29
2023-05-23T12:44:59.946Z,68.22
2023-05-23T12:45:59.939Z,70.79
2023-05-23T12:46:59.959Z,70.26
2023-05-23T12:47:59.901Z,68.62
2023-05-23T12:48:59.878Z,65.12
2023-05-23T12:49:59.879Z,67.36
2023-05-23T12:50:59.871Z,66.52
2023-05-23T12:51:59.856Z,66.02
2023-05-23T12:52:59.851Z,64.22
2023-05-23T12:53:59.813Z,65.36